Terminal Aerodrome Forecast
Issued by NWS Boston, MA

Home | Current Version | Previous Version | Text Only | Print | Product List | Glossary On
Versions: 1 2 3 4 5 6 7 8 9 10 11 12 13 14 15 16 17 18 19 20 21 22 23 24 25 26 27 28 29 30 31 32 33 34
781
FTUS41 KBOX 061131
TAFORH
TAF
KORH 061131Z 0612/0712 30006KT P6SM SKC
     FM061700 02004KT P6SM SCT200
     FM062200 08004KT P6SM BKN150
     FM070200 08004KT P6SM VCSH OVC050
     FM070500 06005KT 6SM -SN OVC025
     FM070800 05005KT 1SM -SN OVC015
     FM071000 04005KT 3SM -SN OVC015=

USA.gov is the U.S. government's official web portal to all federal, state and local government web resources and services.